createdAt,value
2018-08-20T00:00:43.463Z,79.99
2018-08-20T00:03:12.383Z,80.21
2018-08-20T00:05:43.754Z,80.03
2018-08-20T00:08:14.085Z,80.31
2018-08-20T00:10:43.141Z,80.19
2018-08-20T00:13:12.205Z,79.62
2018-08-20T00:15:41.299Z,79.19
2018-08-20T00:18:12.854Z,80.28
2018-08-20T00:20:42.719Z,80.44
2018-08-20T00:23:11.588Z,80.87
2018-08-20T00:25:40.721Z,81.22
2018-08-20T00:28:09.647Z,81.65
2018-08-20T00:30:38.875Z,81.75
2018-08-20T00:33:07.833Z,82.43
2018-08-20T00:35:36.916Z,82.73
2018-08-20T00:38:07.161Z,82.86
2018-08-20T00:40:36.131Z,82.67
2018-08-20T00:43:05.301Z,82.10
2018-08-20T00:45:34.289Z,81.68
2018-08-20T00:48:03.108Z,82.41
2018-08-20T00:50:32.132Z,82.67
2018-08-20T00:53:01.345Z,83.67
2018-08-20T00:55:30.312Z,83.70
2018-08-20T00:57:59.489Z,83.83
2018-08-20T01:00:28.490Z,83.79
2018-08-20T01:02:57.526Z,83.26
2018-08-20T01:05:26.474Z,81.08
2018-08-20T01:07:55.525Z,82.39
2018-08-20T01:10:24.592Z,81.64
2018-08-20T01:12:53.557Z,81.46
2018-08-20T01:15:22.606Z,82.13
2018-08-20T01:17:51.574Z,81.80
2018-08-20T01:20:20.767Z,81.80
2018-08-20T01:22:49.621Z,81.38
2018-08-20T01:25:18.597Z,81.81
2018-08-20T01:27:49.993Z,82.06
2018-08-20T01:30:19.050Z,82.06
2018-08-20T01:32:48.015Z,82.09
2018-08-20T01:35:26.853Z,81.76
2018-08-20T01:37:55.819Z,81.00
2018-08-20T01:40:25.233Z,80.34
2018-08-20T01:42:54.336Z,80.45
2018-08-20T01:45:23.357Z,80.41
2018-08-20T01:47:52.245Z,79.89
2018-08-20T01:50:21.214Z,79.29
2018-08-20T01:52:50.400Z,78.91
2018-08-20T01:55:19.344Z,78.53
2018-08-20T01:57:48.106Z,77.85
2018-08-20T02:00:17.159Z,78.34
2018-08-20T02:02:50.352Z,77.76
2018-08-20T02:05:19.402Z,77.51
2018-08-20T02:07:48.200Z,77.40
2018-08-20T02:10:17.377Z,77.80
2018-08-20T02:12:46.324Z,78.35
2018-08-20T02:15:15.361Z,78.78
2018-08-20T02:17:44.281Z,79.24
2018-08-20T02:20:13.461Z,79.53
2018-08-20T02:22:42.447Z,80.12
2018-08-20T02:25:11.682Z,80.42
2018-08-20T02:27:40.683Z,80.49
2018-08-20T02:30:09.767Z,80.82
2018-08-20T02:32:39.053Z,81.03
2018-08-20T02:35:08.905Z,81.36
2018-08-20T02:37:45.430Z,81.81
2018-08-20T02:40:15.120Z,82.36
2018-08-20T02:42:44.158Z,82.57
2018-08-20T02:45:15.562Z,82.94
2018-08-20T02:47:45.091Z,82.63
2018-08-20T02:50:14.769Z,82.94
2018-08-20T02:52:45.039Z,82.79
2018-08-20T02:55:14.163Z,83.13
2018-08-20T02:57:43.097Z,83.15
2018-08-20T03:00:14.994Z,83.25
2018-08-20T03:02:43.989Z,83.81
2018-08-20T03:05:13.695Z,84.01
2018-08-20T03:07:42.742Z,83.97
2018-08-20T03:10:13.315Z,83.93
2018-08-20T03:12:42.588Z,83.82
2018-08-20T03:15:12.061Z,83.65
2018-08-20T03:17:41.096Z,83.74
2018-08-20T03:20:09.979Z,83.77
2018-08-20T03:22:38.850Z,84.35
2018-08-20T03:25:08.328Z,84.79
2018-08-20T03:27:37.721Z,84.75
2018-08-20T03:30:07.867Z,84.50
2018-08-20T03:32:37.068Z,84.56
2018-08-20T03:35:07.618Z,84.42
2018-08-20T03:37:36.702Z,84.47
2018-08-20T03:40:06.812Z,84.23
2018-08-20T03:42:35.753Z,83.85
2018-08-20T03:45:06.266Z,83.22
2018-08-20T03:47:35.626Z,82.98
2018-08-20T03:50:05.527Z,82.30
2018-08-20T03:52:34.432Z,82.08
2018-08-20T03:55:03.540Z,82.21
2018-08-20T03:57:32.589Z,82.38
2018-08-20T04:00:01.636Z,81.94
2018-08-20T04:02:30.629Z,81.90
2018-08-20T04:05:00.313Z,81.89
2018-08-20T04:07:29.251Z,81.72
2018-08-20T04:09:59.701Z,81.53
2018-08-20T04:12:29.796Z,81.29
2018-08-20T04:14:58.959Z,80.76
2018-08-20T04:17:28.959Z,80.49
2018-08-20T04:20:10.424Z,79.95
2018-08-20T04:22:40.438Z,79.41
2018-08-20T04:25:09.427Z,78.61
2018-08-20T04:27:38.551Z,78.11
2018-08-20T04:30:07.628Z,77.23
2018-08-20T04:32:36.643Z,76.96
2018-08-20T04:35:06.070Z,76.94
2018-08-20T04:37:35.075Z,76.65
2018-08-20T04:40:04.310Z,75.35
2018-08-20T04:42:33.158Z,73.68
2018-08-20T04:45:02.168Z,73.91
2018-08-20T04:47:31.250Z,72.75
2018-08-20T04:50:00.497Z,72.80
2018-08-20T04:52:29.680Z,72.02
2018-08-20T04:54:58.708Z,70.88
2018-08-20T04:57:27.700Z,70.63
2018-08-20T04:59:56.563Z,69.91
2018-08-20T05:02:25.485Z,69.15
2018-08-20T05:04:54.326Z,68.05
2018-08-20T05:07:23.279Z,67.78
2018-08-20T05:09:52.102Z,68.57
2018-08-20T05:12:21.001Z,68.21
2018-08-20T05:14:51.204Z,66.27
2018-08-20T05:17:20.150Z,66.24
2018-08-20T05:19:49.176Z,64.88
2018-08-20T05:22:17.973Z,64.23
2018-08-20T05:24:49.253Z,65.19
2018-08-20T05:27:18.321Z,64.15
2018-08-20T05:29:47.435Z,63.91
2018-08-20T05:32:16.438Z,63.86
2018-08-20T05:34:45.369Z,63.42
2018-08-20T05:37:14.315Z,63.38
2018-08-20T05:39:55.330Z,62.80
2018-08-20T05:42:24.344Z,64.00
2018-08-20T05:44:53.198Z,64.32
2018-08-20T05:47:25.835Z,64.32
2018-08-20T05:49:54.887Z,64.16
2018-08-20T05:52:27.980Z,64.11
2018-08-20T05:54:56.975Z,64.42
2018-08-20T05:57:25.912Z,64.09
2018-08-20T05:59:55.162Z,64.48
2018-08-20T06:02:23.922Z,64.73
2018-08-20T06:04:52.833Z,64.31
2018-08-20T06:07:21.868Z,64.38
2018-08-20T06:09:50.844Z,63.77
2018-08-20T06:12:19.909Z,64.31
2018-08-20T06:14:49.156Z,64.60
2018-08-20T06:17:18.217Z,65.05
2018-08-20T06:19:47.230Z,65.72
2018-08-20T06:22:16.273Z,65.06
2018-08-20T06:24:45.287Z,64.67
2018-08-20T06:27:14.423Z,63.19
2018-08-20T06:29:43.581Z,62.65
2018-08-20T06:32:13.616Z,62.29
2018-08-20T06:34:42.848Z,61.26
2018-08-20T06:37:13.570Z,61.58
2018-08-20T06:39:42.919Z,61.36
2018-08-20T06:42:11.992Z,61.32
2018-08-20T06:44:41.014Z,61.47
2018-08-20T06:47:17.219Z,61.24
2018-08-20T06:49:46.332Z,61.30
2018-08-20T06:52:15.354Z,59.40
2018-08-20T06:54:56.752Z,57.52
2018-08-20T06:57:25.802Z,57.68
2018-08-20T06:59:55.014Z,58.13
2018-08-20T07:02:25.127Z,57.21
2018-08-20T07:04:56.053Z,57.66
2018-08-20T07:07:28.847Z,56.24
2018-08-20T07:09:57.908Z,55.29
2018-08-20T07:12:26.870Z,55.21
2018-08-20T07:14:56.475Z,54.73
2018-08-20T07:17:25.491Z,55.89
2018-08-20T07:19:54.454Z,54.03
2018-08-20T07:22:24.505Z,54.61
2018-08-20T07:24:53.390Z,55.24
2018-08-20T07:27:22.204Z,54.64
2018-08-20T07:29:55.101Z,53.49
2018-08-20T07:32:24.173Z,53.95
2018-08-20T07:34:53.222Z,51.99
2018-08-20T07:37:22.094Z,51.41
2018-08-20T07:39:51.012Z,51.98
2018-08-20T07:42:20.003Z,51.30
2018-08-20T07:44:49.049Z,51.54
2018-08-20T07:47:18.180Z,52.28
2018-08-20T07:49:47.152Z,51.57
2018-08-20T07:52:16.070Z,51.50
2018-08-20T07:54:44.993Z,51.27
2018-08-20T07:57:14.205Z,50.40
2018-08-20T07:59:43.098Z,51.50
2018-08-20T08:02:12.276Z,53.34
2018-08-20T08:04:41.383Z,53.80
2018-08-20T08:07:10.538Z,53.25
2018-08-20T08:09:39.585Z,51.78
2018-08-20T08:12:08.613Z,52.81
2018-08-20T08:14:37.852Z,52.76
2018-08-20T08:17:07.135Z,51.15
2018-08-20T08:19:36.018Z,54.27
2018-08-20T08:22:05.181Z,54.06
2018-08-20T08:24:34.106Z,54.40
2018-08-20T08:27:03.276Z,53.45
2018-08-20T08:29:32.318Z,50.88
2018-08-20T08:32:01.424Z,49.97
2018-08-20T08:34:30.427Z,47.57
2018-08-20T08:36:59.486Z,48.98
2018-08-20T08:39:28.349Z,48.28
2018-08-20T08:41:57.447Z,48.04
2018-08-20T08:44:26.433Z,47.77
2018-08-20T08:46:55.539Z,47.72
2018-08-20T08:49:24.520Z,46.85
2018-08-20T08:51:53.580Z,46.66
2018-08-20T08:54:22.601Z,45.39
2018-08-20T08:56:51.704Z,45.01
2018-08-20T08:59:20.873Z,45.67
2018-08-20T09:01:49.823Z,43.35
2018-08-20T09:04:18.942Z,45.59
2018-08-20T09:06:47.950Z,45.83
2018-08-20T09:09:16.990Z,44.81
2018-08-20T09:11:45.993Z,45.67
2018-08-20T09:14:15.116Z,44.95
2018-08-20T09:16:44.194Z,44.96
2018-08-20T09:19:13.157Z,45.81
2018-08-20T09:21:42.261Z,44.13
2018-08-20T09:24:11.197Z,42.92
2018-08-20T09:26:40.235Z,41.98
2018-08-20T09:29:09.276Z,42.00
2018-08-20T09:31:38.464Z,42.28
2018-08-20T09:34:09.206Z,40.50
2018-08-20T09:36:38.235Z,39.63
2018-08-20T09:39:08.673Z,39.62
2018-08-20T09:41:37.517Z,38.99
2018-08-20T09:44:06.884Z,39.69
2018-08-20T09:46:35.664Z,38.22
2018-08-20T09:49:04.674Z,36.82
2018-08-20T09:51:33.620Z,37.52
2018-08-20T09:54:02.621Z,36.17
2018-08-20T09:56:31.575Z,35.91
2018-08-20T09:59:00.747Z,35.94
2018-08-20T10:01:29.824Z,37.14
2018-08-20T10:03:58.820Z,36.64
2018-08-20T10:06:28.241Z,37.09
2018-08-20T10:08:57.295Z,37.28
2018-08-20T10:11:26.189Z,37.39
2018-08-20T10:13:55.541Z,37.53
2018-08-20T10:16:25.405Z,37.75
2018-08-20T10:18:54.332Z,37.62
2018-08-20T10:21:23.235Z,36.66
2018-08-20T10:23:52.100Z,35.88
2018-08-20T10:26:21.110Z,37.14
2018-08-20T10:28:50.164Z,37.68
2018-08-20T10:31:19.432Z,38.50
2018-08-20T10:33:48.441Z,37.93
2018-08-20T10:36:17.605Z,37.22
2018-08-20T10:38:46.579Z,37.11
2018-08-20T10:41:15.752Z,37.18
2018-08-20T10:43:47.119Z,37.21
2018-08-20T10:46:20.498Z,37.34
2018-08-20T10:48:49.841Z,35.42
2018-08-20T10:51:19.769Z,36.86
2018-08-20T10:53:49.034Z,36.57
2018-08-20T10:56:18.032Z,36.59
2018-08-20T10:58:51.032Z,37.11
2018-08-20T11:01:20.263Z,36.81
2018-08-20T11:03:54.551Z,36.60
2018-08-20T11:06:23.660Z,35.27
2018-08-20T11:08:52.731Z,35.21
2018-08-20T11:11:21.912Z,34.85
2018-08-20T11:13:51.194Z,34.63
2018-08-20T11:16:20.094Z,34.21
2018-08-20T11:18:49.126Z,35.07
2018-08-20T11:21:18.170Z,35.26
2018-08-20T11:23:47.170Z,35.55
2018-08-20T11:26:16.022Z,34.31
2018-08-20T11:28:45.073Z,34.65
2018-08-20T11:31:14.123Z,33.29
2018-08-20T11:33:43.138Z,34.17
2018-08-20T11:36:12.168Z,34.21
2018-08-20T11:38:41.244Z,32.91
2018-08-20T11:41:12.239Z,33.02
2018-08-20T11:43:41.152Z,32.60
2018-08-20T11:46:10.089Z,32.21
2018-08-20T11:48:40.119Z,32.77
2018-08-20T11:51:09.268Z,31.95
2018-08-20T11:53:38.358Z,31.74
2018-08-20T11:56:07.384Z,30.62
2018-08-20T11:58:36.392Z,31.96
2018-08-20T12:01:05.476Z,31.24
2018-08-20T12:03:34.572Z,31.46
2018-08-20T12:06:03.552Z,31.40
2018-08-20T12:08:32.438Z,31.33
2018-08-20T12:11:01.409Z,31.96
2018-08-20T12:13:30.481Z,31.48
2018-08-20T12:15:59.339Z,31.53
2018-08-20T12:18:29.072Z,31.80
2018-08-20T12:20:58.770Z,30.86
2018-08-20T12:23:27.483Z,31.13
2018-08-20T12:25:56.560Z,31.48
2018-08-20T12:28:25.421Z,31.37
2018-08-20T12:30:54.281Z,31.98
2018-08-20T12:33:23.222Z,31.57
2018-08-20T12:35:52.061Z,31.46
2018-08-20T12:38:21.016Z,30.25
2018-08-20T12:40:49.997Z,30.66
2018-08-20T12:43:19.000Z,30.80
2018-08-20T12:45:48.019Z,32.50
2018-08-20T12:48:17.497Z,31.00
2018-08-20T12:50:46.616Z,30.45
2018-08-20T12:53:15.731Z,31.16
2018-08-20T12:55:44.587Z,30.91
2018-08-20T12:58:13.513Z,29.84
2018-08-20T13:00:42.478Z,29.89
2018-08-20T13:03:11.618Z,29.36
2018-08-20T13:05:40.511Z,30.65
2018-08-20T13:08:09.473Z,29.79
2018-08-20T13:10:38.436Z,28.99
2018-08-20T13:13:07.461Z,30.78
2018-08-20T13:15:37.379Z,30.09
2018-08-20T13:18:06.469Z,29.90
2018-08-20T13:20:35.354Z,29.54
2018-08-20T13:23:04.380Z,28.96
2018-08-20T13:25:33.455Z,30.67
2018-08-20T13:28:02.511Z,30.18
2018-08-20T13:30:31.485Z,28.79
2018-08-20T13:33:00.392Z,29.88
2018-08-20T13:35:29.381Z,30.51
2018-08-20T13:37:58.448Z,31.15
2018-08-20T13:40:27.578Z,31.22
2018-08-20T13:42:56.512Z,29.52
2018-08-20T13:45:26.500Z,30.09
2018-08-20T13:47:55.498Z,30.56
2018-08-20T13:50:24.394Z,31.36
2018-08-20T13:52:53.420Z,30.14
2018-08-20T13:55:22.591Z,28.85
2018-08-20T13:57:51.622Z,29.45
2018-08-20T14:00:23.044Z,29.48
2018-08-20T14:02:54.903Z,30.21
2018-08-20T14:05:26.061Z,29.76
2018-08-20T14:07:55.335Z,29.46
2018-08-20T14:10:24.421Z,31.02
2018-08-20T14:12:53.397Z,29.51
2018-08-20T14:15:22.348Z,30.53
2018-08-20T14:17:51.129Z,29.33
2018-08-20T14:20:20.204Z,30.46
2018-08-20T14:22:49.174Z,30.71
2018-08-20T14:25:18.000Z,30.34
2018-08-20T14:27:46.938Z,29.65
2018-08-20T14:30:16.904Z,29.09
2018-08-20T14:32:46.189Z,28.16
2018-08-20T14:35:15.140Z,27.99
2018-08-20T14:37:44.338Z,28.42
2018-08-20T14:40:15.743Z,27.97
2018-08-20T14:42:45.807Z,28.48
2018-08-20T14:45:15.968Z,28.90
2018-08-20T14:49:14.392Z,28.68
2018-08-20T14:51:43.410Z,29.41
2018-08-20T14:54:12.334Z,29.14
2018-08-20T14:56:41.230Z,28.88
2018-08-20T14:59:10.045Z,30.15
2018-08-20T15:01:39.073Z,28.93
2018-08-20T15:04:08.024Z,29.91
2018-08-20T15:06:46.531Z,30.18
2018-08-20T15:09:15.501Z,29.28
2018-08-20T15:11:44.291Z,29.54
2018-08-20T15:14:13.416Z,30.08
2018-08-20T15:16:42.366Z,29.62
2018-08-20T15:19:11.712Z,29.74
2018-08-20T15:21:41.483Z,30.52
2018-08-20T15:24:10.535Z,29.88
2018-08-20T15:26:39.493Z,30.33
2018-08-20T15:29:08.583Z,30.64
2018-08-20T15:31:38.172Z,30.43
2018-08-20T15:34:07.460Z,31.07
2018-08-20T15:36:36.904Z,31.11
2018-08-20T15:39:07.087Z,30.86
2018-08-20T15:41:39.361Z,31.90
2018-08-20T15:44:09.509Z,30.76
2018-08-20T15:46:39.371Z,30.91
2018-08-20T15:49:08.292Z,28.61
2018-08-20T15:51:37.205Z,30.26
2018-08-20T15:54:06.097Z,29.50
2018-08-20T15:56:35.074Z,29.88
2018-08-20T15:59:04.345Z,28.42
2018-08-20T16:01:33.981Z,29.37
2018-08-20T16:05:32.484Z,29.73
2018-08-20T16:08:01.507Z,29.28
2018-08-20T16:10:30.560Z,29.48
2018-08-20T16:12:59.531Z,29.60
2018-08-20T16:15:28.884Z,30.34
2018-08-20T16:17:57.865Z,30.71
2018-08-20T16:20:27.932Z,30.97
2018-08-20T16:22:57.090Z,31.61
2018-08-20T16:25:26.137Z,31.77
2018-08-20T16:27:55.165Z,32.33
2018-08-20T16:30:24.100Z,31.64
2018-08-20T16:32:53.070Z,34.14
2018-08-20T16:35:22.012Z,34.93
2018-08-20T16:37:50.951Z,35.42
2018-08-20T16:40:20.099Z,36.15
2018-08-20T16:42:49.661Z,36.00
2018-08-20T16:45:18.681Z,36.37
2018-08-20T16:47:47.641Z,37.39
2018-08-20T16:50:16.665Z,37.25
2018-08-20T16:52:45.740Z,38.96
2018-08-20T16:55:14.866Z,38.85
2018-08-20T16:57:43.990Z,38.77
2018-08-20T17:00:13.478Z,38.63
2018-08-20T17:02:43.550Z,39.28
2018-08-20T17:05:14.038Z,39.14
2018-08-20T17:07:43.074Z,39.48
2018-08-20T17:10:13.407Z,39.41
2018-08-20T17:12:42.611Z,39.91
2018-08-20T17:15:15.417Z,40.73
2018-08-20T17:17:44.422Z,41.10
2018-08-20T17:20:14.358Z,41.25
2018-08-20T17:22:43.661Z,41.59
2018-08-20T17:25:12.765Z,41.74
2018-08-20T17:27:44.926Z,42.75
2018-08-20T17:30:13.850Z,41.99
2018-08-20T17:32:42.792Z,41.92
2018-08-20T17:35:11.873Z,43.17
2018-08-20T17:37:40.816Z,42.48
2018-08-20T17:40:11.077Z,43.39
2018-08-20T17:42:40.456Z,43.58
2018-08-20T17:45:11.105Z,42.28
2018-08-20T17:47:40.905Z,42.81
2018-08-20T17:50:25.043Z,42.53
2018-08-20T17:52:54.111Z,43.48
2018-08-20T17:55:23.115Z,43.36
2018-08-20T17:57:52.279Z,43.03
2018-08-20T18:00:29.330Z,43.02
2018-08-20T18:02:58.357Z,43.13
2018-08-20T18:05:27.451Z,42.50
2018-08-20T18:07:56.548Z,42.56
2018-08-20T18:10:25.863Z,42.78
2018-08-20T18:12:55.066Z,43.38
2018-08-20T18:15:24.062Z,43.31
2018-08-20T18:17:53.121Z,42.51
2018-08-20T18:20:22.025Z,42.65
2018-08-20T18:22:51.142Z,43.88
2018-08-20T18:25:20.255Z,43.96
2018-08-20T18:27:49.408Z,44.59
2018-08-20T18:30:18.507Z,44.81
2018-08-20T18:32:47.570Z,44.40
2018-08-20T18:35:22.989Z,45.28
2018-08-20T18:37:53.083Z,45.73
2018-08-20T18:40:23.088Z,46.14
2018-08-20T18:42:52.122Z,47.68
2018-08-20T18:45:21.305Z,48.11
2018-08-20T18:47:52.701Z,47.87
2018-08-20T18:50:21.942Z,48.47
2018-08-20T18:52:50.874Z,49.56
2018-08-20T18:55:20.103Z,49.48
2018-08-20T18:57:49.172Z,49.80
2018-08-20T19:00:18.266Z,50.17
2018-08-20T19:02:54.942Z,50.48
2018-08-20T19:05:23.956Z,51.13
2018-08-20T19:07:53.271Z,50.93
2018-08-20T19:10:31.369Z,50.97
2018-08-20T19:13:00.409Z,50.81
2018-08-20T19:15:34.683Z,50.70
2018-08-20T19:18:03.773Z,51.60
2018-08-20T19:20:32.694Z,51.49
2018-08-20T19:23:01.618Z,51.04
2018-08-20T19:25:30.747Z,51.16
2018-08-20T19:28:02.306Z,50.98
2018-08-20T19:30:32.892Z,51.01
2018-08-20T19:33:04.729Z,51.02
2018-08-20T19:35:33.689Z,51.23
2018-08-20T19:38:02.651Z,50.70
2018-08-20T19:40:31.731Z,50.24
2018-08-20T19:43:00.776Z,50.52
2018-08-20T19:45:34.473Z,51.96
2018-08-20T19:48:03.499Z,51.52
2018-08-20T19:50:32.519Z,52.25
2018-08-20T19:53:02.085Z,51.19
2018-08-20T19:55:31.094Z,52.33
2018-08-20T19:57:59.897Z,52.01
2018-08-20T20:00:28.456Z,52.78
2018-08-20T20:02:57.441Z,53.78
2018-08-20T20:05:26.487Z,54.08
2018-08-20T20:08:02.413Z,53.88
2018-08-20T20:10:31.557Z,54.99
2018-08-20T20:13:00.561Z,54.55
2018-08-20T20:15:32.211Z,55.38
2018-08-20T20:18:01.175Z,54.55
2018-08-20T20:20:30.042Z,55.59
2018-08-20T20:24:28.249Z,54.23
2018-08-20T20:26:57.233Z,55.40
2018-08-20T20:29:26.153Z,56.01
2018-08-20T20:31:55.225Z,55.92
2018-08-20T20:34:24.177Z,55.99
2018-08-20T20:36:53.672Z,56.27
2018-08-20T20:39:22.576Z,56.87
2018-08-20T20:41:51.563Z,57.15
2018-08-20T20:44:20.576Z,57.02
2018-08-20T20:46:49.653Z,57.89
2018-08-20T20:49:18.436Z,58.26
2018-08-20T20:51:47.603Z,57.86
2018-08-20T20:54:16.542Z,58.19
2018-08-20T20:56:45.597Z,58.44
2018-08-20T20:59:14.547Z,57.61
2018-08-20T21:01:43.489Z,57.50
2018-08-20T21:04:12.552Z,58.34
2018-08-20T21:06:42.565Z,57.87
2018-08-20T21:09:13.441Z,57.45
2018-08-20T21:11:42.512Z,56.77
2018-08-20T21:14:11.659Z,56.85
2018-08-20T21:16:40.731Z,57.23
2018-08-20T21:19:10.183Z,56.86
2018-08-20T21:21:40.186Z,57.30
2018-08-20T21:24:09.269Z,56.93
2018-08-20T21:26:38.407Z,57.46
2018-08-20T21:29:07.560Z,57.88
2018-08-20T21:31:41.629Z,58.20
2018-08-20T21:34:10.723Z,58.23
2018-08-20T21:36:39.751Z,59.07
2018-08-20T21:39:10.421Z,59.82
2018-08-20T21:41:39.389Z,59.56
2018-08-20T21:44:08.889Z,60.88
2018-08-20T21:46:38.511Z,60.49
2018-08-20T21:49:07.634Z,60.38
2018-08-20T21:51:42.929Z,61.31
2018-08-20T21:54:12.075Z,62.27
2018-08-20T21:56:49.879Z,62.04
2018-08-20T21:59:19.065Z,61.86
2018-08-20T22:01:48.198Z,61.94
2018-08-20T22:04:21.518Z,62.02
2018-08-20T22:06:51.062Z,62.20
2018-08-20T22:09:20.160Z,62.80
2018-08-20T22:11:49.305Z,63.12
2018-08-20T22:14:18.240Z,63.64
2018-08-20T22:16:47.370Z,63.63
2018-08-20T22:19:16.432Z,63.55
2018-08-20T22:21:45.436Z,63.80
2018-08-20T22:24:14.490Z,64.16
2018-08-20T22:26:48.594Z,64.04
2018-08-20T22:29:17.625Z,64.54
2018-08-20T22:31:51.731Z,63.38
2018-08-20T22:34:20.658Z,63.70
2018-08-20T22:36:54.367Z,64.22
2018-08-20T22:39:23.498Z,64.91
2018-08-20T22:41:52.633Z,64.13
2018-08-20T22:44:22.848Z,64.92
2018-08-20T22:46:51.807Z,64.08
2018-08-20T22:49:20.996Z,64.18
2018-08-20T22:51:49.964Z,61.93
2018-08-20T22:54:18.880Z,61.92
2018-08-20T22:56:47.806Z,62.45
2018-08-20T22:59:16.972Z,62.80
2018-08-20T23:01:45.886Z,63.00
2018-08-20T23:04:14.938Z,63.19
2018-08-20T23:06:44.064Z,63.59
2018-08-20T23:09:26.859Z,63.50
2018-08-20T23:11:55.968Z,63.81
2018-08-20T23:14:25.037Z,62.98
2018-08-20T23:16:53.990Z,62.80
2018-08-20T23:19:22.974Z,63.01
2018-08-20T23:21:54.365Z,62.51
2018-08-20T23:24:23.413Z,63.49
2018-08-20T23:26:52.368Z,63.93
2018-08-20T23:29:21.600Z,63.98
2018-08-20T23:31:50.680Z,64.09
2018-08-20T23:34:19.798Z,64.69
2018-08-20T23:36:48.859Z,65.80
2018-08-20T23:39:18.333Z,66.63
2018-08-20T23:41:47.412Z,66.94
2018-08-20T23:44:17.324Z,67.66
2018-08-20T23:46:47.999Z,67.58
2018-08-20T23:49:16.929Z,68.02
2018-08-20T23:51:46.278Z,68.67
2018-08-20T23:54:15.297Z,68.81
2018-08-20T23:56:44.346Z,68.91
2018-08-20T23:59:13.400Z,69.54
